Loomis, WA (98827)

12:24 AM PST on December 06, 2016 (GMT -0800)
Sinlahekin Wildlife Area | | Change Station

Elev 1539 ft 48.75 °N, 119.65 °W | Updated 36 seconds ago

Light Snow
Light Snow
26.8 °F
Feels Like 27 °F
N
3.0
Wind Variable Wind from NE
Gusts 7.0 mph

Today
High -- | Low -- °F
--% Chance of Precip.
Yesterday
High -- | Low -- °F
Precip. -- in
Pressure 30.10 in
Visibility 9.0 miles
Clouds Overcast 5000 ft
Windchill 27 °F
Dew Point 25 °F
Humidity 94%
Rainfall 0.00 in
Snow Depth Not available.
7:37 AM 4:02 PM
Waxing Crescent, 39% visible
METAR KOMK 060753Z AUTO 35012KT 9SM -SN OVC050 M02/M06 A3005 RMK AO2 SNB11 SLP193 P0000 T10221056 410111083
Pressure 30.10 in
Visibility 9.0 miles
Clouds Overcast 5000 ft
Windchill 27 °F
Dew Point 25 °F
Humidity 94%
Rainfall 0.00 in
Snow Depth Not available.
7:37 AM 4:02 PM
Waxing Crescent, 39% visible
METAR KOMK 060753Z AUTO 35012KT 9SM -SN OVC050 M02/M06 A3005 RMK AO2 SNB11 SLP193 P0000 T10221056 410111083

10-Day Weather Forecast

Almanac

Astronomy

Dec. 06, 2016 Rise Set
Actual Time
Civil Twilight
Nautical Twilight
Astronomical Twilight
Moon
Length of Visible Light
Length of Day
Tomorrow will be .
, % of the Moon is Illuminated

Today's Extremes

State Highs State Lows

Community

WunderPhotos

Upload Photos

1,955,935 photos uploaded!

WunderBlog® & News

Nearby

Air Quality

  Air Quality AQ Index Pollutant
Not available.

Snow Depth

Station Depth Elevation

Earthquake Activity

City Distance Mag. Time & Date
Minimum magnitude displayed is 2.5.

Coastal Water Temperatures

Place Temperature

Stations

Nearby Weather Stations

Station Location Temp. Windchill Dew Point Humidity Wind Precip. Elev Updated Type
                   

Watches & Warnings

There are currently no watches in effect.